Tiempo atmosférico en la estación meteorológica de Tazacorte, Santa Cruz de Tenerife (30 m.)



Fecha
DESCASC
Temp. máxima en grados centígrados (hora)
DESCASC
Temp. mínima en grados centígrados (hora)
DESCASC
Temp. media en grados centígrados
DESCASC
Racha de viento máxima en m/sg (hora)
DESCASC
Velocidad máxima media en intervalos de 10 minutos(hora)
DESCASC
Precipitaciones diarias en mm
DESCASC
Precipitaciones de 00:00 a 06:00 en mm
DESCASC
Precipitaciones de 06:00 a 12:00 en mm
DESCASC
Precipitaciones de 12:00 a 18:00 en mm
DESCASC
Precipitaciones de 18:00 a 24:00 en mm
DESCASC
15-08-2019 29.2 (17:10) 20.1 (08:20) 24.7 5 (16:10) 2.78 (19:10) 0 0 0 0 0
14-08-2019 28.6 (16:50) 20.5 (00:00) 24.6 9.17 (01:20) 5.56 (01:20) 0 0 0 0 0
13-08-2019 29.3 (14:20) 20.8 (00:00) 25 6.11 (22:30) 3.33 (22:20) 0 0 0 0 0
12-08-2019 29.6 (14:10) 22.1 (00:00) 25.9 5.83 (13:20) 2.78 (06:50) 0 0 0 0 0
11-08-2019 29.9 (16:20) 21.9 (00:00) 25.9 6.11 (16:40) 3.61 (17:00) 0 0 0 0 0
10-08-2019 29.9 (15:20) 21.4 (00:00) 25.6 6.39 (18:40) 3.89 (18:30) 0 0 0 0 0
09-08-2019 29.1 (16:10) 21 (00:00) 25.1 4.72 (15:20) 2.78 (16:50) 0 0 0 0 0
08-08-2019 28.2 (17:10) 20.6 (00:00) 24.4 5.28 (10:10) 3.06 (11:00) 0 0 0 0 0
07-08-2019 29.9 (16:40) 20.7 (00:00) 25.3 5 (15:40) 3.06 (17:40) 0 0 0 0 0
06-08-2019 29.4 (17:00) 20.7 (00:00) 25.1 4.17 (17:50) 2.5 (12:50) 0 0 0 0 0
05-08-2019 29.7 (17:20) 20.8 (00:00) 25.3 5 (14:20) 2.78 (19:10) 0 0 0 0 0
04-08-2019 29.1 (16:40) 20.5 (00:00) 24.8 5 (01:20) 2.78 (07:40) 0 0 0 0 0
03-08-2019 28.9 (16:40) 20.7 (00:00) 24.8 5.28 (09:30) 3.33 (08:30) 0 0 0 0 0
02-08-2019 28.4 (17:50) 20.3 (00:00) 24.3 7.22 (08:40) 4.44 (08:20) 0 0 0 0 0
01-08-2019 28.2 (15:50) 20.1 (00:00) 24.2 6.39 (07:50) 3.89 (07:50) 0 0 0 0 0
31-07-2019 29 (16:20) 20.5 (00:00) 24.8 5.28 (16:40) 2.78 (13:40) 0 0 0 0 0
30-07-2019 28.9 (16:20) 21 (00:00) 24.9 5.28 (01:10) 3.06 (01:00) 0 0 0 0 0
29-07-2019 28.6 (17:20) 21.8 (00:00) 25.2 8.61 (12:50) 4.72 (12:50) 0 0 0 0 0
28-07-2019 28.7 (15:40) 20.2 (00:00) 24.5 6.67 (11:10) 3.89 (11:10) 0 0 0 0 0
27-07-2019 28.1 (15:30) 20.7 (00:00) 24.4 9.44 (13:30) 5.83 (17:40) 0 0 0 0 0
26-07-2019 29 (16:00) 21 (00:00) 25 5.83 (12:30) 3.33 (18:30) 0 0 0 0 0
25-07-2019 28.9 (15:30) 19.4 (00:00) 24.1 4.44 (11:30) 2.22 (10:20) 0 0 0 0 0
24-07-2019 -- (--) -- (--) -- -- (--) -- (--) -- 0 -- -- 0
23-07-2019 27.4 (16:10) 19 (00:00) 23.2 7.78 (10:50) 4.17 (10:50) 0 0 0 0 0
22-07-2019 27.6 (15:40) 20 (00:00) 23.8 6.94 (13:30) 4.72 (13:40) 0 0 0 0 0
21-07-2019 27.5 (14:20) 20.4 (00:00) 23.9 10.56 (04:40) 7.22 (04:40) 0 0 0 0 0
20-07-2019 28.3 (16:10) 20.3 (00:00) 24.3 11.11 (13:50) 6.39 (13:30) 0 0 0 0 0
19-07-2019 28 (16:50) 19.8 (00:00) 23.9 6.67 (01:00) 4.17 (01:00) 0 0 0 0 0

Gráficas

Temp. máximas Temp. mínimas Temp. medias Precipitaciones Rachas de viento máximas Velocidades máximas media en intervalos de 10 minutos

Datos horarios

Fecha y hora oficial Temperatura (ºC) Velocidad del viento (km/h) Dirección del viento Racha (km/h) Dirección de racha Precipitación (mm) Presión (hPa) Tendencia (hPa) Humedad (%)
2019-08-17 23:00:00 24.5 3 Este 9 Este 0 1005.6 0.5 69
2019-08-17 22:00:00 24.9 3 Sudeste 5 Este 0 1005.6 0.9 83
2019-08-17 21:00:00 25.5 3 Sur 5 Sur 0 1005.2 0.2 76
2019-08-17 20:00:00 27 0 Calma 6 Noroeste 0 1005.1 0.1 67
2019-08-17 19:00:00 28.3 3 Sudoeste 8 Sudoeste 0 1004.7 -0.7 60
2019-08-17 18:00:00 29.8 5 Sudoeste 12 Noroeste 0 1005 -0.8 61
2019-08-17 17:00:00 28.9 7 Noroeste 13 Noroeste 0 1005 -0.8 59
2019-08-17 16:00:00 30.6 5 Oeste 12 Oeste 0 1005.4 -0.7 52
2019-08-17 15:00:00 30.7 5 Sudoeste 10 Sudoeste 0 1005.8 -0.5 55
2019-08-17 14:00:00 30.4 4 Sudoeste 11 Oeste 0 1005.8 -0.2 56
2019-08-17 13:00:00 28.6 2 Sudoeste 7 Sur 0 1006.1 0.5 60
2019-08-17 12:00:00 27.1 4 Este 8 Sur 0 1006.3 1 60
2019-08-17 11:00:00 27.9 4 Sudoeste 10 Sur 0 1006 1.5 59
2019-08-17 10:00:00 26.6 0 Calma 7 Este 0 1005.6 1.8 60
2019-08-17 09:00:00 24.3 4 Nordeste 8 Este 0 1005.3 1.8 67
2019-08-17 08:00:00 24.1 4 Nordeste 9 Nordeste 0 1004.5 0.8 64
2019-08-17 07:00:00 24 4 Nordeste 9 Nordeste 0 1003.8 -0.4 61
2019-08-17 06:00:00 21.7 3 Norte 7 Nordeste 0 1003.5 -1.3 80
2019-08-17 05:00:00 21.6 0 Calma 5 Noroeste 0 1003.7 -1.7 89
2019-08-17 04:00:00 21.9 0 Calma 3 Nordeste 0 1004.2 -1.6 87
2019-08-17 03:00:00 22.1 2 Este 6 Este 0 1004.8 -1.8 79
2019-08-17 02:00:00 22.2 2 Sudeste 4 Sudeste 0 1005.4 -1.1 79
2019-08-17 01:00:00 22.9 2 Sudeste 5 Sudeste 0 1005.8 -0.2 79
2019-08-17 00:00:00 23.3 3 Sudeste 8 Sudeste 0 1006.6 0.8 78
2019-08-16 23:00:00 23.8 6 Sudeste 9 Sudeste 0 1006.5 0.6 74
2019-08-16 22:00:00 24 0 Calma 3 Noroeste 0 1006 0.3 74
2019-08-16 21:00:00 24.8 0 Calma 4 Oeste 0 1005.8 0 76
2019-08-16 20:00:00 26 2 Oeste 9 Sudeste 0 1005.9 0.1 72
2019-08-16 19:00:00 27.3 4 Sudoeste 11 Sudoeste 0 1005.7 -0.1 67
2019-08-16 18:00:00 28.7 4 Sudoeste 12 Sudoeste 0 1005.8 -0.8 62
2019-08-16 17:00:00 29.3 5 Sudoeste 12 Oeste 0 1005.8 -1.2 59
2019-08-16 16:00:00 28.6 4 Oeste 11 Sudoeste 0 1005.8 -1.5 62
2019-08-16 15:00:00 28.4 5 Oeste 11 Sudoeste 0 1006.6 -0.9 62
2019-08-16 14:00:00 28.1 3 Sur 13 Sur 0 1007 -0.5 66
2019-08-16 13:00:00 27.3 6 Sur 13 Sudoeste 0 1007.3 -0.3 72
2019-08-16 12:00:00 26.2 3 Sudoeste 11 Sudoeste 0 1007.5 0.2 76
2019-08-16 11:00:00 25 3 Sudoeste 8 Sudoeste 0 1007.5 0.3 81
2019-08-16 10:00:00 23.4 2 Sur 6 Este 0 1007.6 0.7 87
2019-08-16 09:00:00 21.5 3 Este 14 Sudeste 0 1007.3 0.4 92
2019-08-16 08:00:00 20.8 6 Sudeste 10 Sudeste 0 1007.2 0.3 90
2019-08-16 07:00:00 20.5 6 Este 9 Este 0 1006.9 -0.3 87
2019-08-16 06:00:00 20.7 5 Este 9 Este 0 1006.9 -0.6 83
2019-08-16 05:00:00 21.2 5 Este 9 Este 0 1006.9 -1.5 81
2019-08-16 04:00:00 21.4 6 Este 10 Este 0 1007.2 -1.6 78
2019-08-16 03:00:00 21.6 6 Este 8 Este 0 1007.5 -1.5 80
2019-08-16 02:00:00 21.5 0 Calma 7 Nordeste 0 1008.4 -0.5 85
2019-08-16 01:00:00 22.1 2 Nordeste 6 Sudeste 0 1008.8 0.3 87
2019-08-16 00:00:00 22.8 3 Sudeste 7 Sudeste 0 1009 0.5 86
2019-08-15 23:00:00 22.8 3 Sudeste 5 Sudeste 0 1008.9 0.7 86
2019-08-15 22:00:00 22.9 0 Calma 8 Sur 0 1008.5 0.2 82
2019-08-15 21:00:00 24 4 Sur 15 Sur 0 1008.5 -0.3 78
2019-08-15 20:00:00 25 9 Sur 17 Sur 0 1008.2 -0.6 72
2019-08-15 19:00:00 26.4 8 Sur 15 Sur 0 1008.3 -0.7 67
2019-08-15 18:00:00 28.6 6 Sudoeste 13 Sur 0 1008.8 -0.5 59
2019-08-15 17:00:00 28.7 5 Sur 18 Sur 0 1008.8 -0.9 56
2019-08-15 16:00:00 28.2 9 Sur 16 Sudeste 0 1009 -0.9 59
2019-08-15 15:00:00 28.5 8 Sur 14 Sur 0 1009.3 -0.6 59
2019-08-15 14:00:00 28 6 Sudoeste 11 Sudoeste 0 1009.7 -0.3 59
2019-08-15 13:00:00 27.5 6 Sudoeste 12 Sudoeste 0 1009.9 -0.1 62
2019-08-15 12:00:00 26.7 6 Sur 15 Sudeste 0 1009.9 0.3 66
2019-08-15 11:00:00 25.3 6 Sur 11 Sur 0 1010 0.7 71
2019-08-15 10:00:00 23.5 2 Nordeste 10 Norte 0 1010 0.9 77
2019-08-15 09:00:00 20.7 6 Nordeste 11 Nordeste 0 1009.6 0.4 83
2019-08-15 08:00:00 20.2 6 Este 11 Este 0 1009.3 -0.2 85
2019-08-15 07:00:00 20.3 8 Este 12 Este 0 1009.1 -0.5 86
2019-08-15 06:00:00 20.6 5 Este 10 Este 0 1009.2 -0.8 86
2019-08-15 05:00:00 20.8 2 Nordeste 12 Nordeste 0 1009.5 -1.1 84
2019-08-15 04:00:00 20.8 8 Nordeste 14 Este 0 1009.6 -1.2 82
2019-08-15 03:00:00 21.5 5 Sudeste 10 Sudeste 0 1010 -1 85
2019-08-15 02:00:00 22.1 5 Sudeste 8 Sudeste 0 1010.6 -0.4 83
2019-08-15 01:00:00 21.9 2 Este 9 Nordeste 0 1010.8 0.2 83
2019-08-15 00:00:00 22 4 Nordeste 8 Nordeste 0 1011 0.8 81
2019-08-14 23:00:00 22.3 5 Sudeste 12 Sur 0 1011 1 80
2019-08-14 22:00:00 22.9 5 Sur 10 Sur 0 1010.6 0.9 78
2019-08-14 21:00:00 23.6 3 Oeste 14 Noroeste 0 1010.2 0.3 75
2019-08-14 20:00:00 24 9 Noroeste 16 Noroeste 0 1010 -0.1 72
2019-08-14 19:00:00 25.4 8 Noroeste 13 Sudoeste 0 1009.7 -0.8 66
2019-08-14 18:00:00 27.9 9 Sur 20 Sur 0 1009.9 -0.9 60
2019-08-14 17:00:00 28.4 9 Sur 18 Oeste 0 1010.1 -0.9 58
2019-08-14 16:00:00 26.9 10 Noroeste 21 Noroeste 0 1010.5 -0.8 62
2019-08-14 15:00:00 27.1 12 Noroeste 23 Noroeste 0 1010.8 -0.6 58
2019-08-14 14:00:00 27.1 6 Noroeste 18 Sur 0 1011 -0.4 56
2019-08-14 13:00:00 27.4 10 Sur 21 Sur 0 1011.3 0.3 61
2019-08-14 12:00:00 26.9 8 Sur 14 Sudeste 0 1011.4 0.8 63
2019-08-14 11:00:00 25.3 4 Sudoeste 10 Oeste 0 1011.4 1.2 68
2019-08-14 10:00:00 23.7 0 Calma 7 Sudeste 0 1011 0.9 72
2019-08-14 09:00:00 21.3 4 Sudeste 11 Sudeste 0 1010.6 0.5 81
2019-08-14 08:00:00 20.8 7 Sudeste 12 Sudeste 0 1010.2 0.4 77
2019-08-14 07:00:00 21 7 Este 14 Nordeste 0 1010.1 0.6 73
2019-08-14 06:00:00 21.4 9 Nordeste 18 Nordeste 0 1010.1 0.3 70
2019-08-14 05:00:00 21.2 6 Este 18 Sudeste 0 1009.8 -0.6 70
2019-08-14 04:00:00 21.5 13 Sudeste 23 Sur 0 1009.5 -0.6 79
2019-08-14 03:00:00 21.6 12 Sudeste 20 Noroeste 0 1009.8 -1.1 82
2019-08-14 02:00:00 22 14 Noroeste 33 Norte 0 1010.4 -0.7 82
2019-08-14 01:00:00 22 16 Norte 28 Norte 0 1010.1 -0.1 79
2019-08-14 00:00:00 22.5 9 Sudeste 17 Sudeste 0 1010.9 1.1 80
2019-08-13 23:00:00 22.8 3 Norte 22 Noroeste 0 1011.1 1.5 79
2019-08-13 22:00:00 23 10 Norte 17 Noroeste 0 1010.2 0.7 74
2019-08-13 21:00:00 24 4 Sur 19 Sudeste 0 1009.8 0.3 71
2019-08-13 20:00:00 24.9 0 Calma 18 Noroeste 0 1009.6 -0.3 66
2019-08-13 19:00:00 25.8 9 Noroeste 17 Noroeste 0 1009.5 -0.5 65
2019-08-13 18:00:00 28 5 Sudoeste 15 Sudoeste 0 1009.5 -1 59
2019-08-13 17:00:00 29.1 7 Sudoeste 15 Oeste 0 1009.9 -1 58
2019-08-13 16:00:00 28.3 6 Oeste 17 Sudoeste 0 1010 -1.3 59
2019-08-13 15:00:00 28.8 9 Sur 17 Sudoeste 0 1010.5 -0.6 60
2019-08-13 14:00:00 28.8 8 Sudoeste 17 Sudoeste 0 1010.9 -0.2 60
2019-08-13 13:00:00 28.1 8 Sur 15 Sur 0 1011.3 0.6 61
2019-08-13 12:00:00 27.2 10 Sur 21 Sur 0 1011.1 0.8 66
2019-08-13 11:00:00 26 9 Sur 19 Sur 0 1011.1 1.3 71
2019-08-13 10:00:00 24.5 8 Sudeste 14 Sudeste 0 1010.7 0.9 74
2019-08-13 09:00:00 21.6 5 Sudeste 12 Sudeste 0 1010.3 0.8 83
2019-08-13 08:00:00 21.6 8 Sudeste 15 Sudeste 0 1009.8 0.3 83
2019-08-13 07:00:00 21.1 4 Sudeste 12 Sudeste 0 1009.8 -0.2 81
2019-08-13 06:00:00 21.2 3 Nordeste 10 Este 0 1009.5 -1.1 84
2019-08-13 05:00:00 21.7 7 Sudeste 16 Sur 0 1009.5 -1.2 85
2019-08-13 04:00:00 22 7 Sudeste 15 Sur 0 1010 -1 85
2019-08-13 03:00:00 21.9 5 Este 12 Este 0 1010.6 -0.9 79
2019-08-13 02:00:00 22.1 3 Nordeste 14 Sur 0 1010.7 -0.5 82
2019-08-13 01:00:00 22.7 6 Sur 16 Sur 0 1011 0.5 81
2019-08-13 00:00:00 23.1 3 Sudoeste 10 Sudeste 0 1011.5 1.3 82
2019-08-12 23:00:00 23 0 Calma 6 Sur 0 1011.2 1.3 81
2019-08-12 22:00:00 23.5 5 Sur 16 Sur 0 1010.5 1.2 77
2019-08-12 21:00:00 24.4 6 Sur 13 Sur 0 1010.2 0.9 73
2019-08-12 20:00:00 25.5 4 Sudoeste 12 Sudoeste 0 1009.9 0.5 70
2019-08-12 19:00:00 26.9 4 Sudoeste 12 Sur 0 1009.3 -0.6 64
2019-08-12 18:00:00 28.1 6 Sur 14 Sur 0 1009.3 -0.9 62
2019-08-12 17:00:00 28.4 6 Sur 14 Oeste 0 1009.4 -1 61
2019-08-12 16:00:00 28.4 8 Oeste 17 Oeste 0 1009.9 -0.6 62
2019-08-12 15:00:00 28.5 6 Noroeste 14 Oeste 0 1010.2 -0.4 62
2019-08-12 14:00:00 29 8 Sudoeste 21 Sur 0 1010.4 0.3 60
2019-08-12 13:00:00 28.5 8 Sur 15 Sur 0 1010.5 0.6 63
2019-08-12 12:00:00 27.6 3 Sudoeste 13 Sudoeste 0 1010.6 0.7 65
2019-08-12 11:00:00 26.8 7 Sudoeste 17 Sur 0 1010.1 0.6 70
2019-08-12 10:00:00 25.3 6 Sur 14 Sur 0 1009.9 0.8 73
2019-08-12 09:00:00 22.5 7 Sudeste 14 Este 0 1009.9 1.2 80
2019-08-12 08:00:00 22.3 5 Sudeste 18 Sudeste 0 1009.5 0.9 81
2019-08-12 07:00:00 22.6 10 Sudeste 19 Sudeste 0 1009.1 0.2 78
2019-08-12 06:00:00 22.9 7 Sudeste 14 Sudeste 0 1008.7 -0.8 68
2019-08-12 05:00:00 22.9 9 Sudeste 15 Sudeste 0 1008.6 -1.4 71
2019-08-12 04:00:00 22.3 8 Sudeste 15 Sudeste 0 1008.9 -1.7 85
2019-08-12 03:00:00 22.4 8 Sudeste 17 Sudeste 0 1009.5 -1.4 85
2019-08-12 02:00:00 22.4 2 Sudeste 10 Sudeste 0 1010 -1.1 85
2019-08-12 01:00:00 23 6 Sur 13 Sur 0 1010.6 -0.2 84
2019-08-12 00:00:00 22.9 4 Sudeste 9 Sudeste 0 1010.9 0.4 83
2019-08-11 23:00:00 23.5 0 Calma 14 Norte 0 1011.1 1 82
2019-08-11 22:00:00 23.9 6 Noroeste 13 Noroeste 0 1010.8 0.9 79
2019-08-11 21:00:00 25.1 4 Sur 14 Sur 0 1010.5 0.8 75
2019-08-11 20:00:00 26.5 7 Sudoeste 17 Noroeste 0 1010.1 0 71
2019-08-11 19:00:00 26.8 9 Noroeste 18 Noroeste 0 1009.9 -0.5 70
2019-08-11 18:00:00 29 7 Noroeste 20 Sur 0 1009.7 -1.2 60
2019-08-11 17:00:00 29 13 Sur 22 Sudeste 0 1010.1 -1.1 63
2019-08-11 16:00:00 28.8 5 Sur 15 Noroeste 0 1010.4 -1.2 63
2019-08-11 15:00:00 28.6 7 Noroeste 18 Noroeste 0 1010.9 -1 66
2019-08-11 14:00:00 29.4 6 Sudoeste 17 Sur 0 1011.2 -0.5 65
2019-08-11 13:00:00 28.8 7 Sur 15 Sur 0 1011.6 -0.1 66
2019-08-11 12:00:00 28.4 4 Sudoeste 13 Sudoeste 0 1011.9 0.5 68
2019-08-11 11:00:00 26.9 3 Sudoeste 10 Sudoeste 0 1011.7 0.7 72
2019-08-11 10:00:00 25.7 5 Sudeste 13 Sur 0 1011.7 0.8 76
2019-08-11 09:00:00 22.8 8 Sudeste 12 Sudeste 0 1011.4 0.6 88
2019-08-11 08:00:00 22.2 5 Este 12 Este 0 1011 0.3 85
2019-08-11 07:00:00 22.2 6 Este 12 Sudeste 0 1010.9 0.1 87
2019-08-11 06:00:00 22.3 5 Sudeste 12 Sudeste 0 1010.8 -0.3 89
2019-08-11 05:00:00 22.7 7 Sudeste 14 Este 0 1010.7 -0.6 89
2019-08-11 04:00:00 22.9 5 Este 8 Sudeste 0 1010.8 -0.8 88
2019-08-11 03:00:00 23.1 0 Calma 11 Sudeste 0 1011.1 -1 89
2019-08-11 02:00:00 23.3 5 Sudeste 10 Sudeste 0 1011.3 -1.1 89
2019-08-11 01:00:00 23.6 0 Calma 5 Sudoeste 0 1011.6 -0.7 87
2019-08-11 00:00:00 24.5 2 Oeste 7 Sudoeste 0 1012.1 -0.1 86
2019-08-10 23:00:00 24.8 0 Calma 8 Sudeste 0 1012.4 0.5 85
2019-08-10 22:00:00 25.1 4 Sur 7 Sur 0 1012.3 0.6 84
2019-08-10 21:00:00 25 3 Oeste 10 Noroeste 0 1012.2 0.6 83
2019-08-10 20:00:00 25.4 7 Noroeste 19 Noroeste 0 1011.9 0.2 81
2019-08-10 19:00:00 25.9 12 Noroeste 23 Noroeste 0 1011.7 -0.4 78
2019-08-10 18:00:00 27.6 11 Noroeste 18 Noroeste 0 1011.6 -1.2 70
2019-08-10 17:00:00 29.2 8 Sudoeste 19 Sur 0 1011.7 -1.2 67
2019-08-10 16:00:00 28.8 9 Sur 17 Sur 0 1012.1 -1 66
2019-08-10 15:00:00 29.3 6 Sudoeste 13 Oeste 0 1012.8 -0.3 65
2019-08-10 14:00:00 28.2 4 Oeste 14 Noroeste 0 1012.9 0.2 70
2019-08-10 13:00:00 28.5 4 Oeste 12 Sudoeste 0 1013.1 0.7 70
2019-08-10 12:00:00 27.7 6 Sur 13 Sudoeste 0 1013.1 1.5 73
2019-08-10 11:00:00 26.5 4 Sudoeste 10 Sudoeste 0 1012.7 1.4 77
2019-08-10 10:00:00 24.7 5 Norte 11 Noroeste 0 1012.4 1.5 81
2019-08-10 09:00:00 22.6 6 Norte 13 Norte 0 1011.6 1 85
2019-08-10 08:00:00 21.8 4 Nordeste 8 Nordeste 0 1011.3 0.5 84
2019-08-10 07:00:00 21.9 4 Este 7 Sudeste 0 1010.9 -0.1 90
2019-08-10 06:00:00 21.7 5 Este 9 Sudeste 0 1010.6 -0.9 87
2019-08-10 05:00:00 21.6 4 Sudeste 9 Este 0 1010.8 -1.2 90
2019-08-10 04:00:00 21.9 3 Este 4 Este 0 1011 -1.5 90
2019-08-10 03:00:00 22.3 0 Calma -- -- 0 1011.5 -1.3 89
2019-08-10 02:00:00 22.6 0 Calma 4 Sur 0 1012 -0.8 88
2019-08-10 01:00:00 23.4 0 Calma 5 Oeste 0 1012.5 0.2 86
2019-08-10 00:00:00 23.6 0 Calma 6 Oeste 0 1012.8 1.2 85
2019-08-09 23:00:00 23.8 3 Noroeste 9 Noroeste 0 1012.8 1.6 85
2019-08-09 22:00:00 23.9 3 Noroeste 10 Noroeste 0 1012.3 1.4 84
2019-08-09 21:00:00 23.9 5 Noroeste 13 Noroeste 0 1011.6 0.6 82
2019-08-09 20:00:00 24.8 8 Noroeste 14 Noroeste 0 1011.2 0 78
2019-08-09 19:00:00 25.9 8 Noroeste 16 Noroeste 0 1010.9 -0.5 73
2019-08-09 18:00:00 28.3 5 Sudoeste 15 Sudoeste 0 1011 -0.5 66
2019-08-09 17:00:00 28.5 10 Sur 16 Sudoeste 0 1011.2 -0.5 65
2019-08-09 16:00:00 28.8 9 Sudoeste 17 Sudoeste 0 1011.4 -0.1 65
2019-08-09 15:00:00 28.5 9 Sur 16 Sur 0 1011.5 0.3 67
2019-08-09 14:00:00 28.1 8 Sur 14 Sur 0 1011.7 0.8 67
2019-08-09 13:00:00 27.8 6 Sudoeste 11 Sudoeste 0 1011.5 0.6 69
2019-08-09 12:00:00 26 5 Noroeste 11 Oeste 0 1011.2 0.6 72
2019-08-09 11:00:00 25.3 3 Sudoeste 9 Noroeste 0 1010.9 0.3 76
2019-08-09 10:00:00 23.7 0 Calma 7 Nordeste 0 1010.9 0.6 83
2019-08-09 09:00:00 21.8 5 Nordeste 9 Este 0 1010.6 0.4 89
2019-08-09 08:00:00 21.1 6 Este 12 Este 0 1010.6 0.2 84
2019-08-09 07:00:00 21.8 3 Sudeste 10 Este 0 1010.3 -0.5 88
2019-08-09 06:00:00 21.5 5 Este 9 Este 0 1010.2 -1 88
2019-08-09 05:00:00 21.5 5 Este 8 Este 0 1010.4 -1.1 87
2019-08-09 04:00:00 21.7 4 Este 11 Nordeste 0 1010.8 -0.6 86
2019-08-09 03:00:00 22 5 Nordeste 11 Este 0 1011.2 -0.1 85
2019-08-09 02:00:00 22.5 5 Norte 9 Norte 0 1011.5 0.6 86
2019-08-09 01:00:00 22.3 4 Norte 5 Norte 0 1011.4 0.8 88
2019-08-09 00:00:00 22.2 0 Calma 6 Sudeste 0 1011.3 1.3 87
2019-08-08 23:00:00 22.3 4 Sudeste 11 Sur 0 1010.9 1.5 86
2019-08-08 22:00:00 23.1 5 Sur 13 Sudeste 0 1010.6 1.3 82
2019-08-08 21:00:00 23.8 7 Sur 14 Sur 0 1010 0.5 78
2019-08-08 20:00:00 25.1 6 Sur 12 Sur 0 1009.4 -0.1 73
2019-08-08 19:00:00 25.9 6 Oeste 16 Oeste 0 1009.3 -0.1 71
2019-08-08 18:00:00 26.9 7 Noroeste 16 Oeste 0 1009.5 0 69
2019-08-08 17:00:00 27.6 7 Oeste 18 Oeste 0 1009.5 -0.1 66
2019-08-08 16:00:00 27.3 6 Oeste 18 Noroeste 0 1009.4 -0.4 67
2019-08-08 15:00:00 27 9 Noroeste 15 Noroeste 0 1009.5 -0.3 69
2019-08-08 14:00:00 25.7 6 Noroeste 17 Noroeste 0 1009.6 0.2 70
2019-08-08 13:00:00 25.6 10 Noroeste 18 Noroeste 0 1009.8 0.9 70
2019-08-08 12:00:00 25.5 8 Noroeste 18 Noroeste 0 1009.8 1.2 74
2019-08-08 11:00:00 24.3 11 Noroeste 19 Noroeste 0 1009.4 0.9 75
2019-08-08 10:00:00 23.7 8 Noroeste 17 Norte 0 1008.9 0.7 76
2019-08-08 09:00:00 21.3 10 Nordeste 14 Nordeste 0 1008.6 0.6 83
2019-08-08 08:00:00 20.8 7 Este 11 Este 0 1008.5 0.4 83
2019-08-08 07:00:00 21 6 Este 11 Este 0 1008.2 -0.3 82
2019-08-08 06:00:00 21.4 6 Este 10 Este 0 1008 -0.9 80
2019-08-08 05:00:00 22.4 0 Calma 8 Noroeste 0 1008.1 -1.2 80
2019-08-08 04:00:00 22.4 3 Noroeste 10 Noroeste 0 1008.5 -1.1 80
2019-08-08 03:00:00 22.7 5 Noroeste 10 Noroeste 0 1008.9 -0.7 80
2019-08-08 02:00:00 22.9 0 Calma 9 Noroeste 0 1009.3 -0.2 79
2019-08-08 01:00:00 23.2 0 Calma 6 Norte 0 1009.6 0.6 79
2019-08-08 00:00:00 23.5 0 Calma 7 Oeste 0 1009.6 1 80
2019-08-07 23:00:00 23.6 2 Oeste 10 Noroeste 0 1009.5 1 82
2019-08-07 22:00:00 23.5 5 Noroeste 12 Noroeste 0 1009 0.4 82
2019-08-07 21:00:00 24 5 Noroeste 13 Noroeste 0 1008.6 -0.3 77
2019-08-07 20:00:00 24.8 7 Noroeste 13 Noroeste 0 1008.5 -0.5 73
2019-08-07 19:00:00 26.1 5 Oeste 18 Sudoeste 0 1008.6 -0.7 70
2019-08-07 18:00:00 27.9 10 Sudoeste 18 Sur 0 1008.9 -0.7 66
2019-08-07 17:00:00 28.2 10 Sur 18 Sudoeste 0 1009 -0.8 62
2019-08-07 16:00:00 28.9 8 Sudoeste 18 Sudoeste 0 1009.3 -0.2 62
2019-08-07 15:00:00 27.8 5 Sudoeste 14 Oeste 0 1009.6 0 62
2019-08-07 14:00:00 28.4 6 Oeste 14 Sudoeste 0 1009.8 0.3 60
2019-08-07 13:00:00 27.8 3 Sudoeste 13 Sur 0 1009.5 -0.1 62
2019-08-07 12:00:00 27.2 6 Sur 13 Sur 0 1009.6 0.2 63
2019-08-07 11:00:00 26.5 7 Sur 13 Sur 0 1009.5 0.7 65
2019-08-07 10:00:00 24.1 2 Sur 10 Nordeste 0 1009.6 1.2 73
2019-08-07 09:00:00 21.7 7 Nordeste 17 Este 0 1009.4 1.3 76
2019-08-07 08:00:00 21 10 Nordeste 15 Nordeste 0 1008.8 0.7 79
2019-08-07 07:00:00 20.9 6 Nordeste 13 Este 0 1008.4 0.2 79
2019-08-07 06:00:00 20.9 9 Este 14 Este 0 1008.1 -0.3 79
2019-08-07 05:00:00 20.9 6 Este 9 Este 0 1008.1 -0.9 85
2019-08-07 04:00:00 21.3 4 Este 7 Este 0 1008.2 -1.2 85
2019-08-07 03:00:00 21.8 3 Nordeste 8 Sudeste 0 1008.4 -0.9 83
2019-08-07 02:00:00 22 6 Sudeste 9 Sudeste 0 1009 -0.8 80
2019-08-07 01:00:00 22.2 4 Sudeste 7 Sudeste 0 1009.4 -0.1 80
2019-08-07 00:00:00 22.3 4 Este 8 Este 0 1009.3 0 78
2019-08-06 23:00:00 23 5 Sudeste 10 Sudeste 0 1009.8 1.1 80
2019-08-06 22:00:00 23.7 4 Sudeste 9 Sudeste 0 1009.5 0.8 78
2019-08-06 21:00:00 24.6 4 Sur 7 Sudeste 0 1009.3 0.5 73
2019-08-06 20:00:00 25.3 0 Calma 13 Sur 0 1008.7 -0.5 70
2019-08-06 19:00:00 25.9 6 Sur 15 Sur 0 1008.7 -1.1 68
2019-08-06 18:00:00 27.4 6 Sur 15 Sur 0 1008.8 -1.5 64
2019-08-06 17:00:00 28.9 7 Sudoeste 13 Sudoeste 0 1009.2 -1.5 60
2019-08-06 16:00:00 28.3 5 Sudoeste 12 Oeste 0 1009.8 -1.1 63
2019-08-06 15:00:00 27.7 5 Sur 14 Sudoeste 0 1010.3 -0.8 65
2019-08-06 14:00:00 27.2 6 Sur 13 Sur 0 1010.7 -0.2 66
2019-08-06 13:00:00 26.9 6 Sur 14 Sudoeste 0 1010.9 0.3 67
2019-08-06 12:00:00 27.1 6 Sudoeste 11 Sudoeste 0 1011.1 0.5 69
2019-08-06 11:00:00 25.9 6 Sudoeste 11 Sudoeste 0 1010.9 0.6 72
2019-08-06 10:00:00 24 4 Sur 6 Sur 0 1010.6 0.3 79
2019-08-06 09:00:00 21.7 3 Este 9 Este 0 1010.6 0.4 83
2019-08-06 08:00:00 21 5 Este 12 Este 0 1010.3 0.3 82
2019-08-06 07:00:00 21 7 Este 12 Este 0 1010.3 -0.1 83
2019-08-06 06:00:00 21.6 3 Este 6 Este 0 1010.2 -0.4 86
2019-08-06 05:00:00 22.1 0 Calma 4 Sur 0 1010 -1.2 87
2019-08-06 04:00:00 22.7 0 Calma 9 Sudoeste 0 1010.4 -1 86
2019-08-06 03:00:00 22.7 4 Sudoeste 10 Sudoeste 0 1010.6 -0.8 86
2019-08-06 02:00:00 22.8 0 Calma 7 Noroeste 0 1011.2 0.1 87
2019-08-06 01:00:00 22.6 2 Noroeste 7 Oeste 0 1011.4 0.7 88
2019-08-06 00:00:00 22.8 0 Calma 5 Sudeste 0 1011.4 1 87
2019-08-05 23:00:00 23.1 3 Sudeste 8 Sur 0 1011.1 1 85
2019-08-05 22:00:00 23.4 3 Sur 5 Sur 0 1010.7 0.6 82
2019-08-05 21:00:00 24.3 3 Noroeste 9 Oeste 0 1010.4 0.3 78
2019-08-05 20:00:00 25.3 5 Sudoeste 16 Sur 0 1010.1 -0.2 75
2019-08-05 19:00:00 26.8 7 Sur 14 Sudoeste 0 1010.1 -0.3 67
2019-08-05 18:00:00 28.5 9 Sudoeste 16 Sudoeste 0 1010.1 -0.5 65
2019-08-05 17:00:00 28.8 6 Sudoeste 14 Sudoeste 0 1010.3 -0.6 60
2019-08-05 16:00:00 28.6 5 Sur 16 Sur 0 1010.4 -1 58
2019-08-05 15:00:00 29.1 9 Sur 18 Sur 0 1010.6 -0.8 56
2019-08-05 14:00:00 28.2 7 Sur 15 Sur 0 1010.9 -0.6 58
2019-08-05 13:00:00 28.1 6 Sur 12 Sur 0 1011.4 -0.1 59
2019-08-05 12:00:00 27.1 4 Sudoeste 10 Sudoeste 0 1011.4 -0.3 63
2019-08-05 11:00:00 25.8 6 Sudoeste 10 Sudoeste 0 1011.5 0.6 71
2019-08-05 10:00:00 24.2 0 Calma 11 Este 0 1011.5 0.7 76
2019-08-05 09:00:00 21 6 Este 11 Este 0 1011.7 0.8 86
2019-08-05 08:00:00 20.9 5 Este 9 Este 0 1010.9 -0.1 88
2019-08-05 07:00:00 21 5 Este 9 Este 0 1010.8 -0.2 89
2019-08-05 06:00:00 21.6 5 Sudeste 9 Sudeste 0 1010.9 -0.4 89
2019-08-05 05:00:00 21.9 5 Sudeste 8 Sudeste 0 1011 -0.6 86
2019-08-05 04:00:00 22.2 0 Calma 8 Sudeste 0 1011 -1 85
2019-08-05 03:00:00 22.5 4 Sur 10 Sudeste 0 1011.3 -0.9 86
2019-08-05 02:00:00 22.6 5 Sur 9 Sur 0 1011.6 0 86
2019-08-05 01:00:00 22.4 0 Calma 10 Este 0 1012 0.8 79
2019-08-05 00:00:00 22.2 4 Este 8 Este 0 1012.2 1.3 79
2019-08-04 23:00:00 22.5 3 Sudeste 6 Sudeste 0 1011.6 1 77
2019-08-04 22:00:00 22.8 4 Sudeste 10 Sur 0 1011.2 0.8 73
2019-08-04 21:00:00 24 5 Sur 10 Sur 0 1010.9 0.3 67
2019-08-04 20:00:00 25.2 4 Sur 8 Sudeste 0 1010.6 -0.1 63
2019-08-04 19:00:00 26.5 3 Sur 13 Sudoeste 0 1010.4 -0.6 59
2019-08-04 18:00:00 27.5 6 Sur 13 Sur 0 1010.6 -0.7 58
2019-08-04 17:00:00 28.6 7 Sudoeste 15 Sudoeste 0 1010.7 -1 57
2019-08-04 16:00:00 28.3 5 Oeste 15 Oeste 0 1011 -1 57
2019-08-04 15:00:00 26.4 6 Oeste 13 Oeste 0 1011.3 -0.8 63
2019-08-04 14:00:00 26.9 5 Oeste 13 Oeste 0 1011.7 -0.4 62
2019-08-04 13:00:00 28.2 8 Sudoeste 15 Sudoeste 0 1012 0.2 62
2019-08-04 12:00:00 27.1 6 Sur 14 Sudoeste 0 1012.1 1 65
2019-08-04 11:00:00 26.5 6 Sur 12 Sudoeste 0 1012.1 1 64
2019-08-04 10:00:00 24.5 3 Sur 9 Este 0 1011.8 0.9 68
2019-08-04 09:00:00 21.1 6 Este 15 Este 0 1011.1 0.4 74
2019-08-04 08:00:00 20.8 10 Este 17 Este 0 1011.1 0.6 75
2019-08-04 07:00:00 20.7 7 Este 13 Este 0 1010.9 0.2 79
2019-08-04 06:00:00 20.9 6 Este 9 Este 0 1010.7 -0.3 80
2019-08-04 05:00:00 21.1 2 Sudeste 8 Sudeste 0 1010.5 -0.8 82
2019-08-04 04:00:00 21.8 3 Sudeste 5 Sudeste 0 1010.7 -1 81
2019-08-04 03:00:00 22.1 0 Calma 8 Sudoeste 0 1011 -0.7 81
2019-08-04 02:00:00 22.4 3 Oeste 18 Sudoeste 0 1011.3 -0.4 80
2019-08-04 01:00:00 22.5 7 Sur 17 Sudeste 0 1011.7 0.5 82
2019-08-04 00:00:00 22.4 4 Sudeste 10 Noroeste 0 1011.7 1.2 80
2019-08-03 23:00:00 22.5 2 Noroeste 5 Norte 0 1011.7 1.3 79
2019-08-03 22:00:00 22.9 0 Calma 14 Sur 0 1011.2 1 77
2019-08-03 21:00:00 23.6 6 Sur 18 Sudoeste 0 1010.5 0.1 75
2019-08-03 20:00:00 25 6 Sudoeste 14 Sudoeste 0 1010.4 -0.5 68
2019-08-03 19:00:00 25.9 6 Noroeste 15 Oeste 0 1010.2 -1.2 62
2019-08-03 18:00:00 28 7 Sudoeste 15 Sur 0 1010.4 -1.8 58
2019-08-03 17:00:00 28.3 9 Sur 16 Oeste 0 1010.9 -1.6 57
2019-08-03 16:00:00 28.4 8 Sudoeste 15 Sudoeste 0 1011.4 -1.1 58
2019-08-03 15:00:00 27.3 7 Oeste 18 Noroeste 0 1012.2 -0.1 63
2019-08-03 14:00:00 26 10 Noroeste 19 Noroeste 0 1012.5 0.3 66
2019-08-03 13:00:00 27.1 8 Oeste 18 Sur 0 1012.5 0.4 63
2019-08-03 12:00:00 25.6 9 Sur 19 Sudeste 0 1012.3 0.9 71
2019-08-03 11:00:00 24.1 7 Sudeste 18 Norte 0 1012.2 1.5 75
2019-08-03 10:00:00 22.4 9 Norte 19 Norte 0 1012.1 1.6 78
2019-08-03 09:00:00 21.4 9 Norte 19 Nordeste 0 1011.4 0.8 79
2019-08-03 08:00:00 21.2 6 Norte 11 Norte 0 1010.7 0.1 82
2019-08-03 07:00:00 21.1 6 Sudeste 12 Sudeste 0 1010.5 0 83
2019-08-03 06:00:00 20.8 5 Este 15 Nordeste 0 1010.6 -0.3 82
2019-08-03 05:00:00 20.9 9 Nordeste 15 Nordeste 0 1010.6 -0.8 81
2019-08-03 04:00:00 21.5 3 Noroeste 12 Sudoeste 0 1010.5 -1.1 82
2019-08-03 03:00:00 21.9 4 Sur 12 Sur 0 1010.9 -0.4 82
2019-08-03 02:00:00 21.9 2 Sudoeste 7 Oeste 0 1011.4 0.1 82
2019-08-03 01:00:00 21.8 4 Norte 9 Norte 0 1011.6 0.5 82
2019-08-03 00:00:00 21.7 0 Calma 10 Sur 0 1011.3 0.2 81
2019-08-02 23:00:00 22.4 4 Sudeste 10 Sur 0 1011.3 0.4 77
2019-08-02 22:00:00 22.9 3 Sur 10 Oeste 0 1011.1 0.4 75
2019-08-02 21:00:00 23.3 3 Noroeste 11 Noroeste 0 1011.1 0.2 72
2019-08-02 20:00:00 24.5 5 Oeste 13 Sur 0 1010.9 -0.6 69
2019-08-02 19:00:00 26.2 6 Sur 17 Sur 0 1010.7 -0.9 63
2019-08-02 18:00:00 27.6 8 Sur 18 Sur 0 1010.9 -0.6 59
2019-08-02 17:00:00 26.6 7 Noroeste 21 Noroeste 0 1011.5 -0.5 66
2019-08-02 16:00:00 26.2 13 Noroeste 23 Noroeste 0 1011.6 -0.6 68
2019-08-02 15:00:00 26.1 9 Noroeste 19 Noroeste 0 1011.5 -0.8 67
2019-08-02 14:00:00 26.9 7 Sudoeste 19 Sur 0 1012 -0.4 67
2019-08-02 13:00:00 26 11 Sur 23 Sur 0 1012.2 0.1 67
2019-08-02 12:00:00 25.9 6 Sur 12 Sudoeste 0 1012.3 1.3 63
2019-08-02 11:00:00 23.5 7 Norte 22 Noroeste 0 1012.4 1.4 71
2019-08-02 10:00:00 22 12 Norte 25 Norte 0 1012.1 1.6 75
2019-08-02 09:00:00 21.1 16 Norte 26 Norte 0 1011 0.5 78
2019-08-02 08:00:00 20.6 6 Norte 19 Sudeste 0 1011 0.5 82
2019-08-02 07:00:00 21 9 Sudeste 15 Sur 0 1010.5 0.1 79
2019-08-02 06:00:00 21.2 5 Este 17 Nordeste 0 1010.5 -0.1 81
2019-08-02 05:00:00 20.6 12 Nordeste 18 Nordeste 0 1010.5 -0.3 81
2019-08-02 04:00:00 20.5 8 Nordeste 13 Nordeste 0 1010.4 -0.8 80
2019-08-02 03:00:00 21.1 6 Sudeste 11 Sudeste 0 1010.6 -0.4 82
2019-08-02 02:00:00 21.4 5 Este 10 Este 0 1010.8 -0.3 78
2019-08-02 01:00:00 21.5 4 Este 6 Nordeste 0 1011.2 0.2 79
2019-08-02 00:00:00 22 2 Norte 6 Sur 0 1011 0.2 78
2019-08-01 23:00:00 22.8 4 Sur 9 Sur 0 1011.1 0.9 77
2019-08-01 22:00:00 23.1 2 Sudoeste 14 Sudoeste 0 1011 0.9 76
2019-08-01 21:00:00 23.2 4 Oeste 14 Noroeste 0 1010.8 0.4 75
2019-08-01 20:00:00 24.4 8 Noroeste 14 Oeste 0 1010.2 -0.2 70
2019-08-01 19:00:00 26.3 6 Sudoeste 17 Sudoeste 0 1010.1 -0.4 61
2019-08-01 18:00:00 27.2 6 Sur 16 Sudoeste 0 1010.4 -0.5 61
2019-08-01 17:00:00 27.5 9 Sur 23 Sudeste 0 1010.4 -0.9 61
2019-08-01 16:00:00 27.5 9 Sur 21 Sudoeste 0 1010.5 -0.7 59
2019-08-01 15:00:00 26 4 Sudoeste 16 Noroeste 0 1010.9 -0.4 65
2019-08-01 14:00:00 25.2 10 Noroeste 22 Noroeste 0 1011.3 0.5 67
2019-08-01 13:00:00 24.7 13 Noroeste 22 Noroeste 0 1011.2 0.6 69
2019-08-01 12:00:00 26.8 5 Sudoeste 18 Sudeste 0 1011.3 0.9 63
2019-08-01 11:00:00 25.1 9 Sur 18 Sur 0 1010.8 1.3 67
2019-08-01 10:00:00 22.4 9 Sur 17 Sudeste 0 1010.6 1.8 73
2019-08-01 09:00:00 21.1 3 Nordeste 21 Norte 0 1010.4 1.8 75
2019-08-01 08:00:00 20.4 14 Norte 23 Norte 0 1009.5 0.5 72
2019-08-01 07:00:00 20.2 11 Este 20 Sudeste 0 1008.8 -0.3 76
2019-08-01 06:00:00 20.4 8 Sudeste 15 Sudeste 0 1008.6 -0.8 78
2019-08-01 05:00:00 20.7 6 Este 18 Este 0 1009 -1.2 75
2019-08-01 04:00:00 20.6 4 Nordeste 16 Sur 0 1009.1 -1.1 79
2019-08-01 03:00:00 21 8 Sudeste 14 Sudeste 0 1009.4 -0.9 75
2019-08-01 02:00:00 21.4 0 Calma 11 Norte 0 1010.2 0.4 76
2019-08-01 01:00:00 21.6 4 Norte 8 Norte 0 1010.2 0.4 77
2019-08-01 00:00:00 22.1 4 Sur 8 Sudoeste 0 1010.3 0.8 75
2019-07-31 23:00:00 22.1 2 Este 6 Noroeste 0 1009.8 0.6 75
2019-07-31 22:00:00 22.8 3 Noroeste 7 Noroeste 0 1009.8 0.6 71
2019-07-31 21:00:00 24.2 3 Sudoeste 11 Sudoeste 0 1009.5 0.5 64
2019-07-31 20:00:00 25.3 6 Sudoeste 10 Sudoeste 0 1009.2 0 60
2019-07-31 19:00:00 26.2 4 Sudoeste 11 Sur 0 1009.2 -0.4 56
2019-07-31 18:00:00 27.8 5 Sur 17 Sur 0 1009 -1.3 58
2019-07-31 17:00:00 28 9 Sur 19 Sur 0 1009.2 -1.3 57
2019-07-31 16:00:00 28 9 Sudoeste 16 Sudoeste 0 1009.6 -1.1 58
2019-07-31 15:00:00 27.3 6 Oeste 16 Oeste 0 1010.3 -0.5 56
2019-07-31 14:00:00 27.8 7 Sudoeste 17 Sur 0 1010.5 0.1 57
2019-07-31 13:00:00 26.3 8 Sur 14 Sur 0 1010.7 0.6 64
2019-07-31 12:00:00 25.4 7 Oeste 16 Oeste 0 1010.8 1 68
2019-07-31 11:00:00 24.8 7 Noroeste 14 Noroeste 0 1010.4 1.1 64
2019-07-31 10:00:00 24 6 Sudoeste 12 Sudeste 0 1010.1 1.2 68
2019-07-31 09:00:00 21.4 4 Sudeste 6 Sudeste 0 1009.8 1.2 76
2019-07-31 08:00:00 21.1 3 Sudeste 14 Sudeste 0 1009.3 0.6 75
2019-07-31 07:00:00 21 9 Sudeste 14 Sudeste 0 1008.9 -0.2 73
2019-07-31 06:00:00 20.7 7 Este 10 Este 0 1008.6 -1.1 75
2019-07-31 05:00:00 20.9 2 Este 10 Sur 0 1008.7 -1.6 75
2019-07-31 04:00:00 21.6 4 Sudeste 14 Sudeste 0 1009.1 -1.8 75
2019-07-31 03:00:00 21.6 4 Sudeste 8 Sudoeste 0 1009.7 -1.4 75
2019-07-31 02:00:00 22.3 6 Sudoeste 12 Sudoeste 0 1010.3 -0.6 76
2019-07-31 01:00:00 21.9 3 Sudeste 6 Sudeste 0 1010.9 0.5 76
2019-07-31 00:00:00 22.4 0 Calma 10 Sudoeste 0 1011.1 1 75
2019-07-30 23:00:00 22.9 4 Sur 11 Sur 0 1010.9 1.3 74
2019-07-30 22:00:00 23.3 3 Sur 7 Sudoeste 0 1010.4 0.9 70
2019-07-30 21:00:00 24 2 Sudoeste 14 Sur 0 1010.1 0.4 68
2019-07-30 20:00:00 25.2 7 Sur 16 Sudoeste 0 1009.6 -0.3 64
2019-07-30 19:00:00 27 9 Sudoeste 17 Oeste 0 1009.5 -0.7 59
2019-07-30 18:00:00 27.4 7 Noroeste 18 Noroeste 0 1009.7 -1.3 61
2019-07-30 17:00:00 28.4 5 Sudoeste 17 Sudoeste 0 1009.9 -1.4 58
2019-07-30 16:00:00 28.2 8 Sur 14 Sur 0 1010.2 -1.4 59
2019-07-30 15:00:00 27.4 7 Oeste 17 Noroeste 0 1011 -0.9 60
2019-07-30 14:00:00 27 8 Oeste 15 Oeste 0 1011.3 -0.3 62
2019-07-30 13:00:00 26.5 5 Sur 12 Sudoeste 0 1011.6 0.2 66
2019-07-30 12:00:00 26 5 Oeste 13 Oeste 0 1011.9 0.6 67
2019-07-30 11:00:00 27 6 Sudoeste 14 Sudoeste 0 1011.6 0.8 67
2019-07-30 10:00:00 25.3 5 Sur 11 Sudeste 0 1011.4 1.1 68
2019-07-30 09:00:00 21.6 6 Este 11 Este 0 1011.3 0.9 79
2019-07-30 08:00:00 21.2 7 Este 12 Este 0 1010.8 0.8 81
2019-07-30 07:00:00 21.2 6 Este 13 Este 0 1010.3 0.2 81
2019-07-30 06:00:00 21.2 6 Este 10 Este 0 1010.4 -0.3 79
2019-07-30 05:00:00 21.4 6 Sudeste 9 Sudeste 0 1010 -1 79
2019-07-30 04:00:00 21.5 6 Sudeste 12 Sudeste 0 1010.1 -1.2 78
2019-07-30 03:00:00 21.6 6 Sudeste 13 Este 0 1010.7 -0.6 82
2019-07-30 02:00:00 21.7 6 Sudeste 19 Sudeste 0 1011 0 83
2019-07-30 01:00:00 21.9 11 Sur 18 Sur 0 1011.3 0.9 85
2019-07-30 00:00:00 21.9 6 Sudeste 10 Sur 0 1011.3 1.4 85
2019-07-29 23:00:00 22.3 6 Sudeste 14 Sudeste 0 1011 1.4 83
2019-07-29 22:00:00 22.8 9 Sur 17 Sur 0 1010.4 1.2 79
2019-07-29 21:00:00 23.6 4 Sur 13 Noroeste 0 1009.9 0.8 74
2019-07-29 20:00:00 23.9 7 Norte 20 Noroeste 0 1009.6 -0.3 70
2019-07-29 19:00:00 25.6 9 Noroeste 23 Sur 0 1009.2 -0.3 63
2019-07-29 18:00:00 27.3 12 Sur 22 Sur 0 1009.1 -0.6 59
2019-07-29 17:00:00 27.3 8 Oeste 25 Noroeste 0 1009.9 -0.6 59
2019-07-29 16:00:00 26.7 10 Noroeste 21 Noroeste 0 1009.5 -0.7 59
2019-07-29 15:00:00 27.6 11 Sur 22 Sur 0 1009.7 -0.4 61
2019-07-29 14:00:00 25.8 5 Oeste 26 Noroeste 0 1010.5 0.7 67
2019-07-29 13:00:00 25.4 15 Noroeste 31 Noroeste 0 1010.2 0.4 69
2019-07-29 12:00:00 25.8 6 Oeste 23 Sudeste 0 1010.1 0.7 63
2019-07-29 11:00:00 24.9 11 Sur 22 Sur 0 1009.8 0.7 69
2019-07-29 10:00:00 23.3 2 Noroeste 20 Noroeste 0 1009.8 1 75
2019-07-29 09:00:00 22.6 5 Noroeste 11 Oeste 0 1009.4 0.7 78
2019-07-29 08:00:00 22.2 6 Sudeste 16 Sudeste 0 1009.1 0.6 82
2019-07-29 07:00:00 22.1 0 Calma 12 Norte 0 1008.8 0.2 83
2019-07-29 06:00:00 22 6 Norte 13 Noroeste 0 1008.7 -0.3 85
2019-07-29 05:00:00 22.4 6 Norte 12 Sur 0 1008.5 -0.7 83
2019-07-29 04:00:00 22.5 5 Sur 12 Sudeste 0 1008.6 -0.7 84
2019-07-29 03:00:00 22.7 3 Sudoeste 14 Noroeste 0 1009 -0.4 85
2019-07-29 02:00:00 22.6 7 Noroeste 16 Noroeste 0 1009.2 0 86
2019-07-29 01:00:00 23 4 Oeste 9 Sur 0 1009.3 0.3 83
2019-07-29 00:00:00 23.3 2 Sudoeste 9 Sudoeste 0 1009.4 1 84
2019-07-28 23:00:00 23.2 0 Calma 14 Norte 0 1009.2 1.6 86
2019-07-28 22:00:00 23 8 Norte 18 Noroeste 0 1009 1.9 86
2019-07-28 21:00:00 23.4 11 Noroeste 17 Norte 0 1008.4 0.9 84
2019-07-28 20:00:00 24.5 0 Calma 18 Sur 0 1007.6 -0.1 80
2019-07-28 19:00:00 25.4 8 Sur 17 Sur 0 1007.1 -0.4 74
2019-07-28 18:00:00 26.4 4 Oeste 18 Noroeste 0 1007.5 -0.2 70
2019-07-28 17:00:00 26.2 13 Noroeste 21 Noroeste 0 1007.7 -0.6 70
2019-07-28 16:00:00 27.7 6 Oeste 21 Sudeste 0 1007.5 -1 66
2019-07-28 15:00:00 27.8 12 Sur 23 Sur 0 1007.7 -0.6 64
2019-07-28 14:00:00 27.8 5 Sudoeste 17 Oeste 0 1008.3 0.1 63
2019-07-28 13:00:00 25.9 9 Noroeste 18 Noroeste 0 1008.5 0 69
2019-07-28 12:00:00 25.7 9 Noroeste 24 Sur 0 1008.3 0.5 70
2019-07-28 11:00:00 25.3 13 Sur 22 Sur 0 1008.2 0.4 68
2019-07-28 10:00:00 23.4 4 Este 20 Noroeste 0 1008.5 0.7 77
2019-07-28 09:00:00 21 10 Norte 16 Norte 0 1007.8 0.6 83
2019-07-28 08:00:00 20.5 7 Este 11 Este 0 1007.8 0.4 82
2019-07-28 07:00:00 20.4 6 Este 15 Nordeste 0 1007.8 -0.2 79
2019-07-28 06:00:00 20.7 12 Nordeste 16 Nordeste 0 1007.2 -1.5 74
2019-07-28 05:00:00 20.3 4 Sudeste 14 Sudeste 0 1007.4 -1.4 86
2019-07-28 04:00:00 20.5 6 Sudeste 11 Sudeste 0 1008 -1 86
2019-07-28 03:00:00 20.9 4 Nordeste 15 Norte 0 1008.7 -1 86
2019-07-28 02:00:00 20.7 8 Nordeste 13 Norte 0 1008.8 -1.2 86
2019-07-28 01:00:00 21.1 6 Sudeste 14 Sudeste 0 1009 -0.3 86
2019-07-28 00:00:00 21.6 4 Sudeste 13 Norte 0 1009.7 0.5 85
2019-07-27 23:00:00 21.6 6 Norte 18 Norte 0 1010 1.3 84
2019-07-27 22:00:00 21.9 11 Norte 18 Noroeste 0 1009.3 0.1 79
2019-07-26 11:00:00 26.1 5 Sur 9 Sur 0 1010.1 0.7 74
2019-07-26 10:00:00 24.7 0 Calma 8 Sudeste 0 1009.9 0.7 78
2019-07-26 09:00:00 21.6 6 Sudeste 12 Sudeste 0 1009.8 0.9 88
2019-07-26 08:00:00 21.4 8 Sudeste 14 Sudeste 0 1009.4 0.6 87
2019-07-26 07:00:00 21.8 3 Este 8 Nordeste 0 1009.2 0.4 89
2019-07-26 06:00:00 21.2 3 Nordeste 9 Este 0 1008.9 -0.1 90
2019-07-26 05:00:00 21.2 5 Este 9 Este 0 1008.8 -0.6 88
2019-07-26 04:00:00 21.6 3 Nordeste 11 Nordeste 0 1008.8 -1.2 89
2019-07-26 03:00:00 21.6 9 Nordeste 13 Norte 0 1009 -1.3 88
2019-07-26 02:00:00 21.9 3 Norte 6 Sudeste 0 1009.4 -0.6 87
2019-07-26 01:00:00 22.4 0 Calma 7 Sur 0 1010 0.5 87
2019-07-26 00:00:00 22.4 0 Calma 5 Noroeste 0 1010.3 1 88
2019-07-25 23:00:00 22.7 3 Noroeste 6 Noroeste 0 1010 1 86
2019-07-25 22:00:00 23.2 3 Sur 7 Sur 0 1009.5 0.9 84
2019-07-25 21:00:00 23.8 0 Calma 12 Noroeste 0 1009.3 0.7 78
2019-07-25 20:00:00 25.2 5 Oeste 12 Sudoeste 0 1009 0.1 71
2019-07-25 19:00:00 26.4 6 Sur 13 Sur 0 1008.6 -0.7 63
2019-07-25 18:00:00 28.1 6 Sudoeste 13 Noroeste 0 1008.6 -0.7 58
2019-07-25 17:00:00 26.5 8 Noroeste 14 Noroeste 0 1008.9 -0.6 63
2019-07-25 16:00:00 28.6 5 Sudoeste 12 Oeste 0 1009.3 -0.3 57
2019-07-25 15:00:00 28.2 8 Sudoeste 13 Sudoeste 0 1009.3 -0.5 58
2019-07-25 14:00:00 27.6 5 Sudoeste 12 Sudoeste 0 1009.5 0.2 57
2019-07-25 13:00:00 27.5 6 Sudoeste 11 Sudoeste 0 1009.6 0.4 61
2019-07-25 12:00:00 26.5 5 Sur 16 Sur 0 1009.8 0.8 59
2019-07-25 11:00:00 25.8 8 Sur 14 Sur 0 1009.3 0.8 65
2019-07-25 10:00:00 23.9 6 Sudeste 11 Sudeste 0 1009.2 0.9 74
2019-07-25 09:00:00 20.1 8 Este 12 Este 0 1009 0.8 82
2019-07-25 08:00:00 19.5 6 Este 12 Este 0 1008.5 0.5 91
2019-07-25 07:00:00 19.6 6 Este 12 Este 0 1008.3 0 91
2019-07-25 06:00:00 19.8 5 Este 9 Este 0 1008.2 -0.4 91
2019-07-25 05:00:00 19.8 5 Este 8 Este 0 1008 -0.9 90
2019-07-25 04:00:00 20.1 4 Este 7 Este 0 1008.3 -1.1 86
2019-07-25 03:00:00 20.3 5 Este 7 Este 0 1008.6 -0.9 86
2019-07-25 02:00:00 21 5 Este 9 Sudeste 0 1008.9 -0.3 88
2019-07-25 01:00:00 21.2 4 Sur 12 Sudeste 0 1009.4 0.8 89
2019-07-25 00:00:00 21.3 5 Sudeste 9 Sur 0 1009.5 1.3 89
2019-07-24 23:00:00 21.3 3 Sudeste 4 Sudeste 0 1009.2 1.3 89
2019-07-24 22:00:00 21.8 0 Calma 10 Sur 0 1008.6 0.4 85
2019-07-24 21:00:00 23.3 5 Sur 11 Sur 0 1008.2 0.1 78
2019-07-24 20:00:00 24.8 4 Sur 12 Noroeste 0 1007.9 -0.3 72
2019-07-24 19:00:00 24.8 4 Noroeste 15 Noroeste 0 1008.2 -0.2 72
2019-07-24 18:00:00 27.3 7 Oeste 14 Oeste 0 1008.1 -0.9 63
2019-07-24 17:00:00 28.2 8 Sudoeste 17 Sur 0 1008.2 -1 61
2019-07-24 16:00:00 27.5 9 Sur 17 Sudoeste 0 1008.4 -- 62
2019-07-24 15:00:00 27.8 6 Sudoeste 13 Sur 0 1009 -- 61
2019-07-24 14:00:00 27.2 5 Sudoeste -- -- -- 1009.2 -- 63
2019-07-24 13:00:00 -- -- -- -- -- -- -- -- --
2019-07-24 12:00:00 -- -- -- -- -- -- -- -- --
2019-07-24 11:00:00 -- -- -- -- -- -- -- -- --
2019-07-24 10:00:00 -- -- -- -- -- -- -- -- --
2019-07-24 09:00:00 -- -- -- -- -- -- -- -- --
2019-07-24 08:00:00 19.7 8 Nordeste 14 Este 0 1007.8 0.1 86
2019-07-24 07:00:00 19.9 5 Sudeste 14 Sudeste 0 1007.7 -0.3 88
2019-07-24 06:00:00 20 8 Sudeste 12 Sudeste 0 1007.7 -0.9 86
2019-07-24 05:00:00 20.1 5 Este 12 Este 0 1007.7 -1.7 85
2019-07-24 04:00:00 20.5 4 Sudeste 15 Sudeste 0 1008 -1.8 86
2019-07-24 03:00:00 20.4 9 Sudeste 15 Sudeste 0 1008.6 -1.3 86
2019-07-24 02:00:00 20.6 5 Sudeste 9 Este 0 1009.4 -0.6 84
2019-07-24 01:00:00 20.6 5 Este 12 Sudeste 0 1009.8 -0.1 85
2019-07-24 00:00:00 21 7 Sudeste 10 Sudeste 0 1009.9 0.5 83
2019-07-23 23:00:00 21.4 4 Sudeste 10 Noroeste 0 1010 1 81
2019-07-23 22:00:00 21.8 6 Norte 12 Norte 0 1009.9 0.2 79
2019-07-23 21:00:00 22.6 0 Calma 20 Sudeste 0 1009.4 -0.1 76
2019-07-23 20:00:00 23.3 11 Sur 21 Sudeste 0 1009 -0.6 72
2019-07-23 19:00:00 24.3 6 Noroeste 18 Noroeste 0 1009.7 -0.1 69
2019-07-23 18:00:00 26.1 9 Noroeste 18 Sur 0 1009.5 -1.2 62
2019-07-23 17:00:00 26.8 10 Sur 28 Sur 0 1009.6 -0.9 62
2019-07-23 16:00:00 26.9 12 Sur 21 Sur 0 1009.8 -0.5 60
2019-07-23 15:00:00 26.1 5 Noroeste 22 Noroeste 0 1010.7 0.2 63
2019-07-23 14:00:00 26.3 10 Noroeste 19 Sur 0 1010.5 -0.1 62
2019-07-23 13:00:00 26.3 10 Sur 22 Sudeste 0 1010.3 0.5 64
2019-07-23 12:00:00 25.2 4 Sur 20 Noroeste 0 1010.5 0.5 67
2019-07-23 11:00:00 23.6 14 Noroeste 28 Noroeste 0 1010.6 0.6 73
2019-07-23 10:00:00 22.9 6 Noroeste 12 Noroeste 0 1009.8 0.2 74
2019-07-23 09:00:00 20.4 4 Este 11 Sur 0 1010 0.4 83
2019-07-23 08:00:00 19.9 3 Norte 19 Nordeste 0 1010 0.5 83
2019-07-23 07:00:00 19.3 13 Nordeste 19 Nordeste 0 1009.6 -0.4 82
2019-07-23 06:00:00 19.6 6 Sudeste 15 Sudeste 0 1009.6 -0.5 84
2019-07-23 05:00:00 19.6 6 Este 15 Norte 0 1009.5 -1.5 82
2019-07-23 04:00:00 19.8 10 Nordeste 15 Nordeste 0 1010 -1.8 80
2019-07-23 03:00:00 20.1 5 Sudeste 12 Este 0 1010.1 -1.4 81
2019-07-23 02:00:00 20.2 4 Sudeste 14 Nordeste 0 1011 -0.2 82
2019-07-23 01:00:00 20.7 9 Norte 17 Norte 0 1011.8 0.4 79
2019-07-23 00:00:00 20.8 5 Nordeste 9 Sur 0 1011.5 0.7 80
2019-07-22 23:00:00 21.2 5 Sudeste 9 Sudeste 0 1011.2 0.9 79
2019-07-22 22:00:00 21.4 5 Noroeste 20 Norte 0 1011.4 1.2 78
2019-07-22 21:00:00 22.2 11 Noroeste 19 Noroeste 0 1010.8 0.3 72
2019-07-22 20:00:00 23.9 7 Sur 20 Sur 0 1010.3 -0.1 69
2019-07-22 19:00:00 24.9 8 Sur 18 Noroeste 0 1010.2 -0.7 68
2019-07-22 18:00:00 25.1 12 Noroeste 21 Noroeste 0 1010.5 -1 66
2019-07-22 17:00:00 26.5 8 Noroeste 18 Sur 0 1010.4 -1.6 60
2019-07-22 16:00:00 26.8 10 Sur 20 Sudeste 0 1010.9 -0.6 61
2019-07-22 15:00:00 27 6 Sudoeste 23 Norte 0 1011.5 -0.1 63
2019-07-22 14:00:00 24.9 14 Noroeste 25 Noroeste 0 1012 0.1 66
2019-07-22 13:00:00 24.7 11 Noroeste 17 Noroeste 0 1011.5 -0.2 65
2019-07-22 12:00:00 25.5 9 Sur 18 Sur 0 1011.6 0.2 67
2019-07-22 11:00:00 23.6 2 Oeste 21 Norte 0 1011.9 0.6 73
2019-07-22 10:00:00 22.4 14 Norte 22 Noroeste 0 1011.7 -0.2 76
2019-07-22 09:00:00 20.7 5 Norte 14 Sur 0 1011.4 0.1 85
2019-07-22 08:00:00 20.4 7 Sur 16 Sur 0 1011.3 0.1 86
2019-07-22 07:00:00 20.6 6 Noroeste 22 Noroeste 0 1011.9 0.4 86
2019-07-22 06:00:00 20.5 10 Norte 19 Norte 0 1011.3 -0.7 86
2019-07-22 05:00:00 20.4 0 Calma 16 Sur 0 1011.2 -1.2 86
2019-07-22 04:00:00 21.5 8 Sur 17 Sur 0 1011.5 -1.3 84
2019-07-22 03:00:00 21.4 0 Calma 11 Norte 0 1012 -1.1 88
2019-07-22 02:00:00 21.2 9 Norte 15 Norte 0 1012.4 -1 84
2019-07-22 01:00:00 21.9 4 Norte 8 Sur 0 1012.8 0.1 82
2019-07-22 00:00:00 22.2 3 Sur 6 Sudeste 0 1013.1 1.2 84
2019-07-21 23:00:00 22.2 4 Noroeste 13 Norte 0 1013.4 2.1 84
2019-07-21 22:00:00 21.9 9 Norte 17 Noroeste 0 1012.7 1.5 85
2019-07-21 21:00:00 22.6 10 Noroeste 16 Norte 0 1011.9 0.1 79
2019-07-21 20:00:00 24.2 6 Sur 19 Sudeste 0 1011.3 -0.7 72
2019-07-21 19:00:00 24.6 9 Sur 19 Sudeste 0 1011.2 -0.6 69
2019-07-21 18:00:00 25.4 6 Noroeste 22 Noroeste 0 1011.8 -0.2 68
2019-07-21 17:00:00 25.3 15 Noroeste 28 Noroeste 0 1012 -0.2 68
2019-07-21 16:00:00 25.6 14 Noroeste 23 Noroeste 0 1011.8 -0.4 67
2019-07-21 15:00:00 26.4 5 Noroeste 19 Sudeste 0 1012 -0.7 64
2019-07-21 14:00:00 27.1 10 Sur 26 Sur 0 1012.2 0.1 62
2019-07-21 13:00:00 26.8 13 Sur 24 Sur 0 1012.2 0.7 64
2019-07-21 12:00:00 25.9 7 Sur 27 Noroeste 0 1012.7 1.3 66
2019-07-21 11:00:00 23.7 16 Noroeste 33 Noroeste 0 1012.1 1.2 72
2019-07-21 10:00:00 22.9 14 Norte 27 Norte 0 1011.5 0.6 75
2019-07-21 09:00:00 21 3 Norte 25 Sudeste 0 1011.4 0.7 83
2019-07-21 08:00:00 20.8 13 Sudeste 23 Sur 0 1010.9 1.3 82
2019-07-21 07:00:00 20.6 9 Sudeste 22 Norte 0 1010.9 0.4 84
2019-07-21 06:00:00 21.3 10 Norte 34 Noroeste 0 1010.7 -0.1 80
2019-07-21 05:00:00 21.2 22 Norte 38 Norte 0 1009.6 -2.5 79
2019-07-21 04:00:00 20.7 4 Nordeste 17 Sur 0 1010.5 -0.7 86
2019-07-21 03:00:00 21.1 6 Sudeste 13 Sur 0 1010.8 -1.2 85
2019-07-21 02:00:00 21.6 4 Norte 26 Norte 0 1012.1 0.3 85
2019-07-21 01:00:00 21.7 10 Norte 18 Noroeste 0 1011.2 -0.3 82
2019-07-21 00:00:00 22.3 4 Sudeste 13 Sur 0 1012 1.3 82
2019-07-20 23:00:00 22.6 5 Sur 13 Norte 0 1011.8 1.6 82
2019-07-20 22:00:00 22.3 8 Noroeste 22 Noroeste 0 1011.5 1.6 83
2019-07-20 21:00:00 23.2 7 Noroeste 13 Noroeste 0 1010.7 -0.1 75
2019-07-20 20:00:00 24.4 8 Sur 18 Sur 0 1010.2 -0.5 70
2019-07-20 19:00:00 26.2 5 Sur 18 Noroeste 0 1009.9 -1 64
2019-07-20 18:00:00 25.8 11 Noroeste 21 Noroeste 0 1010.8 -0.7 66
2019-07-20 17:00:00 26.9 4 Oeste 20 Sur 0 1010.7 -0.3 61
2019-07-20 16:00:00 28 10 Sur 19 Sur 0 1010.9 0 63
2019-07-20 15:00:00 27.9 5 Sudoeste 36 Noroeste 0 1011.5 0.5 62
2019-07-20 14:00:00 25.2 22 Norte 40 Noroeste 0 1011 0.2 67
2019-07-20 13:00:00 25.3 15 Noroeste 27 Norte 0 1010.9 1 66
2019-07-20 12:00:00 26.2 11 Sur 22 Sur 0 1011 1 63
2019-07-20 11:00:00 24 8 Norte 31 Noroeste 0 1010.8 1.2 70
2019-07-20 10:00:00 22.8 17 Norte 27 Noroeste 0 1009.9 0.8 75
2019-07-20 09:00:00 20.9 3 Sudeste 17 Sur 0 1010 1.2 83
2019-07-20 08:00:00 20.7 6 Sudeste 18 Norte 0 1009.6 0.9 82
2019-07-20 07:00:00 20.6 13 Nordeste 21 Norte 0 1009.1 0.2 79
2019-07-20 06:00:00 20.5 3 Sudeste 16 Sudeste 0 1008.8 -0.4 79
2019-07-20 05:00:00 20.7 8 Este 15 Nordeste 0 1008.7 -1 80
2019-07-20 04:00:00 20.5 11 Nordeste 17 Norte 0 1008.9 -1.1 81
2019-07-20 03:00:00 20.8 6 Sudeste 14 Sudeste 0 1009.2 -0.8 80
2019-07-20 02:00:00 21 3 Sudeste 11 Norte 0 1009.7 -0.1 80
2019-07-20 01:00:00 21.3 7 Nordeste 13 Nordeste 0 1010 0.6 82
2019-07-20 00:00:00 21.6 4 Sudeste 12 Sudeste 0 1010 0.8 81
2019-07-19 23:00:00 22 3 Sur 13 Noroeste 0 1009.8 0.5 77
2019-07-19 22:00:00 22.2 7 Noroeste 15 Sur 0 1009.4 0.4 74
2019-07-19 21:00:00 22.9 9 Sur 19 Sur 0 1009.2 0.3 73
2019-07-19 20:00:00 24.2 5 Sudoeste 17 Noroeste 0 1009.3 -0.1 69
2019-07-19 19:00:00 24.4 10 Noroeste 18 Sur 0 1009 -0.8 69
2019-07-19 18:00:00 26.5 12 Sur 23 Sur 0 1008.9 -1.4 62
2019-07-19 17:00:00 27.3 9 Sur 17 Noroeste 0 1009.4 -1.4 60
2019-07-19 16:00:00 26.1 8 Noroeste 17 Sur 0 1009.8 -1.1 62
2019-07-19 15:00:00 27.9 8 Sur 18 Sudoeste 0 1010.3 -0.5 59
2019-07-19 14:00:00 26.9 4 Sudoeste 13 Oeste 0 1010.8 0.1 59
2019-07-19 13:00:00 25.3 8 Noroeste 18 Noroeste 0 1010.9 0.4 63
2019-07-19 12:00:00 26 7 Sur 15 Sur 0 1010.8 0.5 62
2019-07-19 11:00:00 25.1 8 Sur 14 Sur 0 1010.7 0.8 64
2019-07-19 10:00:00 23.6 0 Calma 10 Este 0 1010.5 0.7 67
2019-07-19 09:00:00 20.4 6 Este 14 Este 0 1010.3 0.9 73
2019-07-19 08:00:00 20 8 Este 15 Este 0 1009.9 0.7 72
2019-07-19 07:00:00 20.1 10 Nordeste 18 Norte 0 1009.8 0.2 71
2019-07-19 06:00:00 20.2 5 Este 16 Este 0 1009.4 -0.1 73
2019-07-19 05:00:00 20.1 9 Este 17 Sudeste 0 1009.2 -1.5 74
2019-07-19 04:00:00 20.1 10 Nordeste 16 Nordeste 0 1009.6 -0.9 77
2019-07-19 03:00:00 20.6 7 Sur 17 Sudeste 0 1009.5 -1.1 77
2019-07-19 02:00:00 21 0 Calma 22 Norte 0 1010.7 0.4 75
2019-07-19 01:00:00 20.7 15 Norte 24 Norte 0 1010.5 0.4 76
2019-07-19 00:00:00 21.3 3 Sur 17 Sur 0 1010.6 0.9 78